Time;durP1;ratioP1;P1;durP2;ratioP2;P2;SDS_P1;SDS_P2;PMS_P1;PMS_P2;Temp;Humidity;BMP_temperature;BMP_pressure;BME280_temperature;BME280_humidity;BME280_pressure;Samples;Min_cycle;Max_cycle;Signal;HPM_P1;HPM_P2
2022/03/06 00:01:51;;;;;;;10.27;3.78;;;1.90;66.90;;;;;;5045838;28;20047;-70
2022/03/06 00:04:20;;;;;;;6.95;2.92;;;1.90;66.80;;;;;;5060926;28;20103;-70
2022/03/06 00:06:49;;;;;;;8.57;3.80;;;1.90;66.90;;;;;;5060786;28;20186;-70
2022/03/06 00:09:19;;;;;;;7.78;3.35;;;1.90;67.00;;;;;;5065956;28;20510;-71
2022/03/06 00:11:54;;;;;;;9.52;3.10;;;1.80;67.00;;;;;;5073198;28;20136;-70
2022/03/06 00:14:23;;;;;;;7.05;3.00;;;1.80;67.10;;;;;;5067529;28;20052;-70
2022/03/06 00:16:53;;;;;;;8.50;4.18;;;1.70;67.10;;;;;;5059909;28;20036;-71
2022/03/06 00:19:21;;;;;;;;;;;1.70;67.10;;;;;;5055419;28;20523;-72
2022/03/06 00:21:52;;;;;;;10.02;2.70;;;1.70;67.20;;;;;;5070111;28;19931;-71
2022/03/06 00:24:25;;;;;;;6.55;3.50;;;1.70;67.10;;;;;;5049490;28;20165;-71
2022/03/06 00:26:58;;;;;;;8.10;3.25;;;1.70;67.00;;;;;;5056934;28;20053;-70
2022/03/06 00:29:28;;;;;;;6.85;3.17;;;1.60;67.20;;;;;;5062938;28;20040;-70
2022/03/06 00:31:55;;;;;;;8.07;3.30;;;1.60;67.20;;;;;;5061731;28;20095;-72
2022/03/06 00:34:22;;;;;;;6.57;2.10;;;1.60;67.20;;;;;;5072101;28;20060;-70
2022/03/06 00:36:49;;;;;;;4.60;2.30;;;1.50;67.20;;;;;;5070957;28;20056;-69
2022/03/06 00:39:19;;;;;;;8.18;2.85;;;1.50;67.30;;;;;;5068862;28;20048;-70
2022/03/06 00:41:47;;;;;;;6.80;3.20;;;1.50;67.40;;;;;;5053898;28;20037;-70
2022/03/06 00:44:16;;;;;;;5.57;2.28;;;1.50;67.40;;;;;;5058227;28;20071;-70
2022/03/06 00:46:46;;;;;;;5.47;2.50;;;1.50;67.50;;;;;;5055194;28;20050;-70
2022/03/06 00:49:13;;;;;;;6.13;2.30;;;1.40;67.50;;;;;;5056674;28;20473;-71
2022/03/06 00:51:41;;;;;;;6.55;2.38;;;1.40;67.50;;;;;;5062119;28;20219;-70
2022/03/06 00:54:08;;;;;;;8.73;2.63;;;1.40;67.50;;;;;;5060643;28;20055;-68
2022/03/06 00:56:46;;;;;;;5.47;2.45;;;1.30;67.60;;;;;;5074194;28;20059;-70
2022/03/06 00:59:14;;;;;;;8.27;2.60;;;1.40;67.60;;;;;;5074293;28;20048;-72
2022/03/06 01:01:42;;;;;;;6.22;2.47;;;1.40;67.60;;;;;;5064676;28;20056;-70
2022/03/06 01:04:11;;;;;;;5.72;2.20;;;1.30;67.70;;;;;;5069520;28;20171;-72
2022/03/06 01:06:39;;;;;;;8.25;3.45;;;1.30;67.60;;;;;;5068754;28;20048;-72
2022/03/06 01:09:07;;;;;;;8.50;3.53;;;1.30;67.80;;;;;;5071691;28;20044;-72
2022/03/06 01:11:36;;;;;;;8.80;3.50;;;1.20;67.80;;;;;;5073831;28;20122;-71
2022/03/06 01:14:04;;;;;;;11.20;3.25;;;1.30;67.70;;;;;;5059976;28;20044;-71
2022/03/06 01:16:31;;;;;;;8.25;2.55;;;1.30;67.80;;;;;;5067715;28;20047;-72
2022/03/06 01:18:59;;;;;;;8.90;3.58;;;1.30;67.80;;;;;;5057079;28;20116;-71
2022/03/06 01:21:30;;;;;;;7.38;3.95;;;1.30;67.80;;;;;;5068540;28;20563;-72
2022/03/06 01:23:57;;;;;;;8.60;3.22;;;1.20;67.80;;;;;;5049819;28;20045;-72
2022/03/06 01:26:24;;;;;;;9.30;3.28;;;1.20;67.90;;;;;;5068414;28;20044;-70
2022/03/06 01:28:51;;;;;;;7.93;2.83;;;1.20;67.90;;;;;;5062354;28;20051;-70
2022/03/06 01:31:18;;;;;;;7.65;2.97;;;1.20;67.90;;;;;;5056846;28;20063;-70
2022/03/06 01:33:45;;;;;;;8.68;2.95;;;1.20;67.90;;;;;;5058172;28;20046;-71
2022/03/06 01:36:13;;;;;;;6.80;2.80;;;1.20;67.90;;;;;;5072564;28;20078;-70
2022/03/06 01:38:42;;;;;;;9.23;3.22;;;1.20;68.00;;;;;;5073592;28;20040;-70
2022/03/06 01:41:21;;;;;;;7.03;3.42;;;1.20;68.00;;;;;;5077272;28;20446;-70
2022/03/06 01:43:48;;;;;;;8.30;3.00;;;1.20;68.00;;;;;;5054411;28;20102;-69
2022/03/06 01:46:15;;;;;;;9.32;4.18;;;1.10;68.00;;;;;;5057758;28;20037;-71
2022/03/06 01:48:43;;;;;;;5.32;2.70;;;1.20;68.00;;;;;;5045556;28;20045;-73
2022/03/06 01:51:10;;;;;;;5.75;3.22;;;1.10;68.00;;;;;;5057065;28;20121;-72
2022/03/06 01:53:39;;;;;;;9.55;3.95;;;1.10;68.00;;;;;;5064282;28;20499;-73
2022/03/06 01:56:13;;;;;;;9.38;3.05;;;1.10;68.00;;;;;;5069917;28;20077;-72
2022/03/06 01:58:42;;;;;;;9.63;3.55;;;1.10;68.10;;;;;;5071141;28;20048;-70
2022/03/06 02:01:10;;;;;;;7.53;3.28;;;1.10;68.20;;;;;;5061276;28;20064;-70
2022/03/06 02:03:37;;;;;;;8.40;2.60;;;1.00;68.40;;;;;;5060908;28;20049;-71
2022/03/06 02:06:07;;;;;;;10.88;3.80;;;1.00;68.40;;;;;;5063088;28;20398;-70
2022/03/06 02:08:35;;;;;;;6.97;3.58;;;1.00;68.40;;;;;;5056102;28;20509;-71
2022/03/06 02:11:08;;;;;;;8.27;3.20;;;1.00;68.50;;;;;;5053915;28;20066;-70
2022/03/06 02:13:38;;;;;;;7.32;3.10;;;1.00;68.50;;;;;;5050300;28;20986;-70
2022/03/06 02:16:06;;;;;;;8.63;2.57;;;1.00;68.50;;;;;;5066963;28;20045;-69
2022/03/06 02:18:37;;;;;;;7.72;2.83;;;1.00;68.50;;;;;;5049633;28;20497;-71
2022/03/06 02:21:09;;;;;;;4.47;2.20;;;1.00;68.60;;;;;;5054289;28;20053;-70
2022/03/06 02:23:37;;;;;;;6.57;3.33;;;0.90;68.70;;;;;;5056346;28;20052;-69
2022/03/06 02:26:05;;;;;;;9.70;3.58;;;0.80;68.70;;;;;;5056572;28;20114;-72
2022/03/06 02:28:32;;;;;;;9.30;3.42;;;0.90;68.80;;;;;;5066447;28;20040;-71
2022/03/06 02:31:00;;;;;;;7.88;2.83;;;0.80;68.80;;;;;;5058612;28;20772;-70
2022/03/06 02:33:28;;;;;;;5.45;2.25;;;0.80;69.00;;;;;;5053185;28;20060;-71
2022/03/06 02:35:59;;;;;;;7.60;2.65;;;0.80;68.90;;;;;;5059530;28;20151;-72
2022/03/06 02:38:27;;;;;;;;;;;0.80;69.00;;;;;;5052339;28;20056;-71
2022/03/06 02:40:56;;;;;;;8.75;2.20;;;0.70;69.00;;;;;;5051973;28;20054;-72
2022/03/06 02:43:23;;;;;;;5.05;2.38;;;0.70;69.00;;;;;;5057782;28;20044;-68
2022/03/06 02:45:50;;;;;;;5.35;3.40;;;0.70;69.00;;;;;;5060696;28;20056;-70
2022/03/06 02:48:19;;;;;;;8.27;2.83;;;0.60;69.20;;;;;;5051119;28;20121;-72
2022/03/06 02:50:51;;;;;;;6.22;2.90;;;0.60;69.10;;;;;;5050330;28;20270;-71
2022/03/06 02:53:23;;;;;;;9.90;3.25;;;0.60;69.10;;;;;;5047268;28;20036;-72
2022/03/06 02:55:51;;;;;;;8.93;2.35;;;0.60;69.10;;;;;;5068272;28;20451;-69
2022/03/06 02:58:19;;;;;;;5.95;2.65;;;0.60;69.10;;;;;;5073430;28;20040;-71
2022/03/06 03:00:49;;;;;;;8.50;3.00;;;0.60;69.20;;;;;;5069137;28;20045;-71
2022/03/06 03:03:19;;;;;;;6.53;2.45;;;0.50;69.10;;;;;;5067143;28;20051;-69
2022/03/06 03:05:49;;;;;;;6.20;2.97;;;0.50;69.10;;;;;;5071465;28;20049;-71
2022/03/06 03:08:17;;;;;;;6.55;2.92;;;0.50;69.20;;;;;;5055618;28;20132;-70
2022/03/06 03:10:48;;;;;;;6.13;2.60;;;0.40;69.40;;;;;;5057125;28;20049;-71
2022/03/06 03:13:16;;;;;;;5.93;2.60;;;0.50;69.50;;;;;;5056706;28;20048;-71
2022/03/06 03:15:44;;;;;;;7.82;3.15;;;0.40;69.40;;;;;;5060029;28;20044;-69
2022/03/06 03:18:14;;;;;;;4.80;2.50;;;0.40;69.40;;;;;;5076061;28;20186;-72
2022/03/06 03:20:41;;;;;;;7.03;2.60;;;0.40;69.30;;;;;;5071918;28;20051;-70
2022/03/06 03:23:08;;;;;;;7.57;2.10;;;0.40;69.50;;;;;;5063774;28;20049;-71
2022/03/06 03:25:35;;;;;;;8.25;2.97;;;0.30;69.50;;;;;;5073430;28;20123;-69
2022/03/06 03:28:09;;;;;;;6.22;2.63;;;0.30;69.60;;;;;;5073444;28;20127;-69
2022/03/06 03:30:38;;;;;;;8.10;3.15;;;0.30;69.60;;;;;;5069090;28;20037;-69
2022/03/06 03:33:05;;;;;;;3.88;2.45;;;0.30;69.60;;;;;;5060380;28;21551;-72
2022/03/06 03:35:36;;;;;;;6.95;2.45;;;0.20;69.70;;;;;;5059832;28;20041;-69
2022/03/06 03:38:04;;;;;;;6.10;2.40;;;0.20;69.60;;;;;;5060223;28;20615;-70
2022/03/06 03:40:40;;;;;;;6.95;3.08;;;0.20;69.60;;;;;;5058858;28;20055;-72
2022/03/06 03:43:09;;;;;;;6.60;2.47;;;0.20;69.70;;;;;;5062938;28;20059;-72
2022/03/06 03:45:38;;;;;;;5.88;2.25;;;0.10;69.70;;;;;;5071961;28;20041;-70
2022/03/06 03:48:06;;;;;;;6.60;3.15;;;0.10;69.80;;;;;;5059562;28;20525;-70
2022/03/06 03:50:34;;;;;;;3.47;1.70;;;0.10;69.90;;;;;;5058702;28;20117;-70
2022/03/06 03:53:01;;;;;;;4.90;1.90;;;0.10;69.90;;;;;;5058775;28;20048;-69
2022/03/06 03:55:29;;;;;;;6.07;1.75;;;0.10;69.90;;;;;;5060748;28;20053;-68
2022/03/06 03:58:02;;;;;;;4.25;1.80;;;0.00;69.80;;;;;;5064258;28;20051;-69
2022/03/06 04:00:29;;;;;;;2.45;1.23;;;0.00;69.80;;;;;;5071312;28;20045;-71
2022/03/06 04:02:58;;;;;;;4.13;2.05;;;0.00;69.80;;;;;;5076962;28;20045;-70
2022/03/06 04:05:26;;;;;;;3.60;1.60;;;0.00;70.00;;;;;;5065289;28;20106;-70
2022/03/06 04:07:54;;;;;;;6.93;2.35;;;0.00;70.10;;;;;;5057571;28;20153;-71
2022/03/06 04:10:22;;;;;;;4.68;1.92;;;0.00;69.90;;;;;;5062071;28;20134;-69
2022/03/06 04:12:50;;;;;;;5.80;1.88;;;0.00;69.80;;;;;;5067517;28;22098;-70
2022/03/06 04:15:18;;;;;;;5.68;2.45;;;0.00;69.90;;;;;;5058329;28;20040;-71
2022/03/06 04:17:48;;;;;;;6.43;2.50;;;0.00;70.00;;;;;;5059029;28;20044;-70
2022/03/06 04:20:26;;;;;;;3.83;2.10;;;-3276.70;70.00;;;;;;5060649;28;21590;-72
2022/03/06 04:23:00;;;;;;;3.55;1.73;;;-3276.70;70.00;;;;;;5062527;28;20105;-70
2022/03/06 04:25:35;;;;;;;6.90;2.50;;;-3276.70;70.10;;;;;;5055921;28;20943;-72
2022/03/06 04:28:09;;;;;;;5.53;2.58;;;-3276.70;70.00;;;;;;5062006;28;20068;-68
2022/03/06 04:30:43;;;;;;;4.85;2.22;;;-3276.70;70.10;;;;;;5071433;28;20044;-70
2022/03/06 04:33:17;;;;;;;5.25;2.17;;;-3276.70;70.00;;;;;;5065026;28;20044;-71
2022/03/06 04:35:54;;;;;;;4.07;1.88;;;-3276.60;70.10;;;;;;5074145;28;20125;-70
2022/03/06 04:38:28;;;;;;;3.22;1.63;;;-3276.60;70.20;;;;;;5073496;28;20080;-71
2022/03/06 04:41:10;;;;;;;6.97;1.98;;;-3276.60;70.20;;;;;;5059141;28;20064;-69
2022/03/06 04:43:43;;;;;;;;;;;-3276.60;70.30;;;;;;5076590;28;20048;-70
2022/03/06 04:46:17;;;;;;;3.45;1.25;;;-3276.60;70.30;;;;;;5060171;28;19997;-73
2022/03/06 04:48:52;;;;;;;4.60;2.25;;;-3276.50;70.30;;;;;;5058726;28;20076;-70
2022/03/06 04:51:26;;;;;;;4.65;2.40;;;-3276.50;70.30;;;;;;5061173;28;20090;-71
2022/03/06 04:54:01;;;;;;;5.82;2.25;;;-3276.50;70.30;;;;;;5072729;28;20048;-71
2022/03/06 04:56:35;;;;;;;6.65;2.65;;;-3276.50;70.40;;;;;;5056944;28;20051;-70
2022/03/06 04:59:12;;;;;;;5.47;1.38;;;-3276.50;70.40;;;;;;5059342;28;20700;-68
2022/03/06 05:01:46;;;;;;;5.82;2.15;;;-3276.50;70.40;;;;;;5053667;28;20050;-69
2022/03/06 05:04:20;;;;;;;3.00;1.65;;;-3276.40;70.40;;;;;;5060362;28;20060;-71
2022/03/06 05:06:56;;;;;;;4.95;2.00;;;-3276.40;70.30;;;;;;5063267;28;20109;-70
2022/03/06 05:09:32;;;;;;;4.88;1.77;;;-3276.40;70.60;;;;;;5072735;28;20048;-70
2022/03/06 05:12:08;;;;;;;6.68;2.38;;;-3276.40;70.60;;;;;;5059491;28;20048;-71
2022/03/06 05:14:42;;;;;;;4.10;2.10;;;-3276.40;70.50;;;;;;5058014;28;20093;-70
2022/03/06 05:17:16;;;;;;;7.38;3.33;;;-3276.40;70.40;;;;;;5070657;28;20052;-71
2022/03/06 05:19:50;;;;;;;4.53;2.00;;;-3276.30;70.50;;;;;;5072104;28;20059;-70
2022/03/06 05:22:26;;;;;;;6.93;2.92;;;-3276.30;70.60;;;;;;5062946;28;20059;-70
2022/03/06 05:25:00;;;;;;;3.50;1.80;;;-3276.30;70.60;;;;;;5054979;28;20549;-72
2022/03/06 05:27:34;;;;;;;5.25;1.55;;;-3276.30;70.60;;;;;;5073623;28;20041;-71
2022/03/06 05:30:10;;;;;;;5.88;2.25;;;-3276.20;70.70;;;;;;5073179;28;20123;-71
2022/03/06 05:32:43;;;;;;;6.55;1.63;;;-3276.20;70.80;;;;;;5063250;28;20049;-72
2022/03/06 05:35:17;;;;;;;6.80;2.85;;;-3276.20;70.80;;;;;;5057638;28;20129;-71
2022/03/06 05:37:46;;;;;;;3.80;2.05;;;-3276.20;70.90;;;;;;5058055;28;20057;-70
2022/03/06 05:40:20;;;;;;;7.38;2.47;;;-3276.20;71.00;;;;;;5061185;28;20131;-70
2022/03/06 05:42:48;;;;;;;4.30;1.63;;;-3276.20;70.90;;;;;;5064793;28;20049;-72
2022/03/06 05:45:15;;;;;;;5.28;2.30;;;-3276.20;70.90;;;;;;5073633;28;20059;-72
2022/03/06 05:47:43;;;;;;;4.88;1.67;;;-3276.10;70.90;;;;;;5074647;28;20139;-70
2022/03/06 05:50:12;;;;;;;4.32;1.60;;;-3276.10;71.10;;;;;;5069771;28;20044;-70
2022/03/06 05:52:40;;;;;;;2.95;1.48;;;-3276.10;71.20;;;;;;5074032;28;20917;-68
2022/03/06 05:55:10;;;;;;;5.45;2.55;;;-3276.10;71.20;;;;;;5069605;28;20048;-71
2022/03/06 05:57:39;;;;;;;4.63;2.13;;;-3276.10;71.20;;;;;;5067718;28;20056;-70
2022/03/06 06:00:08;;;;;;;5.50;2.13;;;-3276.10;71.10;;;;;;5056567;28;20056;-67
2022/03/06 06:02:37;;;;;;;5.35;1.95;;;-3276.10;71.20;;;;;;5061905;28;20489;-71
2022/03/06 06:05:06;;;;;;;2.90;1.75;;;-3276.10;71.20;;;;;;5062394;28;20051;-70
2022/03/06 06:07:42;;;;;;;8.98;1.60;;;-3276.10;71.40;;;;;;5059273;28;20071;-72
2022/03/06 06:10:18;;;;;;;5.38;1.88;;;-3276.10;71.50;;;;;;5071105;28;20040;-70
2022/03/06 06:12:49;;;;;;;7.70;1.98;;;-3276.20;71.80;;;;;;5072296;28;20048;-71
2022/03/06 06:15:20;;;;;;;;;;;-3276.10;71.80;;;;;;5070336;28;20043;-69
2022/03/06 06:17:47;;;;;;;4.70;2.67;;;-3276.20;71.80;;;;;;5074126;28;19920;-70
2022/03/06 06:20:20;;;;;;;7.25;3.78;;;-3276.20;71.90;;;;;;5061772;28;20139;-72
2022/03/06 06:22:56;;;;;;;5.25;2.30;;;-3276.20;72.00;;;;;;5061304;28;20036;-71
2022/03/06 06:25:25;;;;;;;4.00;2.03;;;-3276.20;72.00;;;;;;5061170;28;20498;-71
2022/03/06 06:27:52;;;;;;;8.27;2.55;;;-3276.30;72.00;;;;;;5056448;28;20041;-70
2022/03/06 06:30:20;;;;;;;8.38;2.60;;;-3276.30;72.10;;;;;;5054992;28;20049;-70
2022/03/06 06:32:50;;;;;;;3.97;1.83;;;-3276.40;72.20;;;;;;5072224;28;20123;-71
2022/03/06 06:35:21;;;;;;;7.13;2.40;;;-3276.40;72.20;;;;;;5071258;28;20063;-71
2022/03/06 06:37:53;;;;;;;6.25;2.90;;;-3276.40;72.10;;;;;;5062165;28;20048;-73
2022/03/06 06:40:26;;;;;;;7.55;3.55;;;-3276.40;72.20;;;;;;5069294;28;20059;-72
2022/03/06 06:42:54;;;;;;;6.35;2.22;;;-3276.40;72.30;;;;;;5068431;28;20513;-73
2022/03/06 06:45:25;;;;;;;6.53;2.40;;;-3276.50;72.50;;;;;;5068162;28;20132;-71
2022/03/06 06:47:59;;;;;;;4.45;2.25;;;-3276.50;72.40;;;;;;5069569;28;20051;-71
2022/03/06 06:50:30;;;;;;;7.00;2.35;;;-3276.50;72.30;;;;;;5067707;28;20173;-72
2022/03/06 06:53:00;;;;;;;4.85;2.22;;;-3276.60;72.40;;;;;;5064837;28;20387;-72
2022/03/06 06:55:28;;;;;;;5.70;2.63;;;-3276.60;72.50;;;;;;5059479;28;20047;-71
2022/03/06 06:57:58;;;;;;;6.13;2.40;;;-3276.60;72.40;;;;;;5049850;28;20055;-71
2022/03/06 07:00:25;;;;;;;8.02;2.85;;;-3276.70;72.60;;;;;;5058324;28;20140;-71
2022/03/06 07:02:55;;;;;;;5.68;2.50;;;-3276.70;72.70;;;;;;5065947;28;20115;-71
2022/03/06 07:05:25;;;;;;;5.37;2.33;;;-3276.70;72.80;;;;;;5056877;28;20537;-68
2022/03/06 07:07:56;;;;;;;5.88;2.35;;;-3276.70;72.90;;;;;;5055342;28;20550;-69
2022/03/06 07:10:32;;;;;;;5.03;2.40;;;0.00;73.10;;;;;;5065551;28;20048;-70
2022/03/06 07:13:04;;;;;;;5.10;2.67;;;0.00;72.80;;;;;;5066263;28;20056;-72
2022/03/06 07:15:41;;;;;;;4.10;2.00;;;0.00;72.80;;;;;;5058016;28;20079;-72
2022/03/06 07:18:14;;;;;;;6.85;2.88;;;0.00;72.90;;;;;;5070198;28;20054;-71
2022/03/06 07:20:41;;;;;;;5.38;2.40;;;0.00;72.90;;;;;;5072896;28;20479;-70
2022/03/06 07:23:09;;;;;;;5.47;2.20;;;0.10;72.80;;;;;;5052903;28;20052;-70
2022/03/06 07:25:36;;;;;;;5.80;3.28;;;0.10;72.90;;;;;;5059044;28;20033;-70
2022/03/06 07:28:05;;;;;;;7.55;2.97;;;0.10;73.00;;;;;;5064453;28;20048;-70
2022/03/06 07:30:32;;;;;;;7.00;3.72;;;0.20;72.90;;;;;;5056968;28;20179;-70
2022/03/06 07:33:05;;;;;;;4.90;2.50;;;0.20;72.60;;;;;;5055924;28;20040;-69
2022/03/06 07:35:34;;;;;;;11.93;3.50;;;0.30;72.80;;;;;;5063330;28;20051;-71
2022/03/06 07:38:03;;;;;;;9.82;3.38;;;0.40;72.70;;;;;;5065403;28;20479;-72
2022/03/06 07:40:33;;;;;;;9.73;3.50;;;0.50;72.70;;;;;;5066401;28;20135;-70
2022/03/06 07:43:00;;;;;;;6.07;3.22;;;0.50;72.50;;;;;;5069354;28;20036;-71
2022/03/06 07:45:35;;;;;;;6.68;3.55;;;0.50;72.40;;;;;;5074553;28;20123;-72
2022/03/06 07:48:09;;;;;;;7.15;3.88;;;0.60;72.30;;;;;;5076613;28;20048;-72
2022/03/06 07:50:40;;;;;;;8.27;3.45;;;0.60;72.00;;;;;;5073986;28;20115;-69
2022/03/06 07:53:10;;;;;;;7.93;3.15;;;0.70;72.00;;;;;;5073512;28;20044;-70
2022/03/06 07:55:38;;;;;;;6.68;2.95;;;0.70;72.10;;;;;;5067400;28;20040;-69
2022/03/06 07:58:05;;;;;;;8.50;4.20;;;0.70;72.10;;;;;;5070316;28;20045;-72
2022/03/06 08:00:36;;;;;;;6.70;3.33;;;0.80;72.00;;;;;;5067690;28;20059;-72
2022/03/06 08:03:27;;;;;;;6.38;3.25;;;0.80;71.80;;;;;;5066624;28;21313;-72
2022/03/06 08:06:01;;;;;;;6.82;3.20;;;0.80;71.50;;;;;;5070065;28;20414;-70
2022/03/06 08:08:28;;;;;;;10.63;3.80;;;0.90;71.60;;;;;;5056374;28;20047;-72
2022/03/06 08:11:05;;;;;;;6.90;3.58;;;1.00;71.30;;;;;;5052675;28;20556;-71
2022/03/06 08:13:32;;;;;;;9.07;2.78;;;1.00;71.30;;;;;;5060803;28;20064;-71
2022/03/06 08:16:00;;;;;;;10.85;4.18;;;1.10;71.10;;;;;;5059080;28;20507;-69
2022/03/06 08:18:27;;;;;;;9.95;3.38;;;1.10;71.20;;;;;;5068254;28;20035;-71
2022/03/06 08:20:55;;;;;;;8.68;3.67;;;1.20;71.40;;;;;;5055125;28;20062;-70
2022/03/06 08:23:23;;;;;;;7.72;4.15;;;1.20;71.50;;;;;;5064000;28;20045;-71
2022/03/06 08:25:53;;;;;;;9.80;3.80;;;1.20;71.30;;;;;;5064990;28;20502;-73
2022/03/06 08:28:21;;;;;;;7.70;4.00;;;1.40;71.20;;;;;;5065385;28;20059;-71
2022/03/06 08:30:48;;;;;;;10.98;3.83;;;1.40;71.20;;;;;;5061818;28;20502;-72
2022/03/06 08:33:20;;;;;;;11.10;5.22;;;1.60;71.10;;;;;;5064784;28;20054;-71
2022/03/06 08:35:56;;;;;;;8.55;3.90;;;1.70;70.90;;;;;;5064104;28;20055;-70
2022/03/06 08:38:23;;;;;;;7.45;3.80;;;1.70;70.90;;;;;;5062874;28;20048;-70
2022/03/06 08:41:00;;;;;;;10.50;4.78;;;1.80;70.90;;;;;;5063784;28;20682;-73
2022/03/06 08:43:32;;;;;;;11.55;4.45;;;1.80;71.10;;;;;;5059959;28;20060;-71
2022/03/06 08:45:59;;;;;;;9.18;4.63;;;2.00;70.70;;;;;;5063421;28;20675;-69
2022/03/06 08:48:29;;;;;;;16.50;5.20;;;2.00;70.60;;;;;;5068641;28;20040;-71
2022/03/06 08:51:02;;;;;;;10.63;4.50;;;2.10;70.60;;;;;;5055422;28;20135;-71
2022/03/06 08:53:29;;;;;;;10.00;4.80;;;2.10;70.60;;;;;;5061860;28;20040;-71
2022/03/06 08:55:59;;;;;;;9.00;5.20;;;2.20;70.80;;;;;;5064740;28;20084;-70
2022/03/06 08:58:29;;;;;;;10.82;5.07;;;2.20;70.50;;;;;;5063854;28;20484;-70
2022/03/06 09:00:57;;;;;;;9.77;4.82;;;2.40;70.50;;;;;;5064285;28;20052;-71
2022/03/06 09:03:24;;;;;;;12.32;6.10;;;2.50;70.20;;;;;;5067977;28;20055;-71
2022/03/06 09:05:55;;;;;;;10.75;5.75;;;2.60;70.10;;;;;;5073824;28;20040;-70
2022/03/06 09:08:27;;;;;;;15.85;6.10;;;2.70;70.00;;;;;;5068070;28;20489;-70
2022/03/06 09:10:58;;;;;;;12.43;5.97;;;2.70;69.50;;;;;;5061304;28;20106;-73
2022/03/06 09:13:26;;;;;;;13.07;6.10;;;2.90;69.40;;;;;;5079278;28;20075;-72
2022/03/06 09:15:53;;;;;;;10.10;5.93;;;2.90;69.60;;;;;;5055940;28;20040;-71
2022/03/06 09:18:23;;;;;;;9.40;5.47;;;3.00;69.50;;;;;;5055539;28;20048;-71
2022/03/06 09:20:53;;;;;;;9.45;4.95;;;3.10;69.50;;;;;;5054788;28;20063;-71
2022/03/06 09:23:22;;;;;;;11.43;5.15;;;3.10;69.60;;;;;;5065037;28;20069;-70
2022/03/06 09:25:57;;;;;;;10.02;4.95;;;3.10;69.60;;;;;;5062539;28;20131;-70
2022/03/06 09:28:26;;;;;;;12.38;6.05;;;3.20;69.80;;;;;;5064330;28;20510;-71
2022/03/06 09:30:53;;;;;;;9.60;5.30;;;3.30;70.00;;;;;;5057734;28;20056;-71
2022/03/06 09:33:28;;;;;;;10.35;4.85;;;3.40;69.90;;;;;;5055215;28;20048;-72
2022/03/06 09:35:57;;;;;;;10.05;4.35;;;3.50;69.70;;;;;;5056769;28;20075;-70
2022/03/06 09:38:27;;;;;;;7.72;4.32;;;3.60;69.10;;;;;;5063244;28;20164;-70
2022/03/06 09:40:55;;;;;;;9.75;5.03;;;3.70;68.30;;;;;;5062580;28;20062;-71
2022/03/06 09:43:25;;;;;;;;;;;3.70;68.00;;;;;;5070644;28;20494;-71
2022/03/06 09:45:56;;;;;;;11.43;4.45;;;3.80;67.40;;;;;;5061667;28;20006;-71
2022/03/06 09:48:29;;;;;;;9.68;4.72;;;3.90;66.90;;;;;;5061901;28;20048;-71
2022/03/06 09:51:02;;;;;;;9.27;4.15;;;3.90;66.40;;;;;;5071327;28;20041;-71
2022/03/06 09:53:32;;;;;;;8.98;4.40;;;4.00;66.10;;;;;;5054703;28;20064;-72
2022/03/06 09:56:06;;;;;;;9.55;4.15;;;4.00;66.60;;;;;;5050633;28;21383;-69
2022/03/06 09:58:34;;;;;;;9.45;4.32;;;4.10;65.10;;;;;;5052839;28;20056;-71
2022/03/06 10:01:02;;;;;;;9.15;4.28;;;4.20;65.00;;;;;;5052446;28;20044;-72
2022/03/06 10:03:36;;;;;;;10.02;4.45;;;4.20;64.60;;;;;;5050060;28;20041;-72
2022/03/06 10:06:05;;;;;;;9.98;4.63;;;4.20;64.40;;;;;;5052902;28;20055;-72
2022/03/06 10:08:35;;;;;;;12.85;5.10;;;4.20;63.90;;;;;;5053829;28;20107;-71
2022/03/06 10:11:04;;;;;;;12.65;6.22;;;4.30;63.70;;;;;;5052926;28;20094;-70
2022/03/06 10:13:34;;;;;;;13.55;5.72;;;4.30;63.60;;;;;;5055724;28;20508;-70
2022/03/06 10:16:16;;;;;;;11.18;6.45;;;4.40;63.50;;;;;;5054464;28;20052;-70
2022/03/06 10:18:46;;;;;;;9.57;4.82;;;4.40;63.20;;;;;;5054060;28;20068;-71
2022/03/06 10:21:20;;;;;;;10.07;4.85;;;4.40;63.00;;;;;;5046858;28;20477;-70
2022/03/06 10:23:50;;;;;;;7.93;3.65;;;4.50;62.40;;;;;;5038241;28;20051;-70
2022/03/06 10:26:20;;;;;;;13.90;5.05;;;4.60;62.70;;;;;;5049517;28;20528;-70
2022/03/06 10:28:54;;;;;;;10.88;4.15;;;4.60;61.50;;;;;;5050211;28;20045;-70
2022/03/06 10:31:34;;;;;;;8.48;4.03;;;4.70;61.30;;;;;;5052882;28;20497;-70
2022/03/06 10:34:06;;;;;;;7.72;4.57;;;4.70;61.00;;;;;;5062956;28;20609;-71
2022/03/06 10:36:42;;;;;;;6.80;3.72;;;4.70;59.70;;;;;;5063569;28;20055;-71
2022/03/06 10:39:17;;;;;;;7.20;3.40;;;4.80;59.00;;;;;;5055316;28;20057;-69
2022/03/06 10:41:47;;;;;;;7.80;3.35;;;4.80;59.40;;;;;;5011671;28;20054;-71
2022/03/06 10:44:22;;;;;;;7.20;3.47;;;4.80;58.90;;;;;;5022861;28;20117;-70
2022/03/06 10:47:01;;;;;;;9.68;4.43;;;4.90;58.40;;;;;;5022378;28;20049;-71
2022/03/06 10:49:32;;;;;;;7.35;3.33;;;4.90;58.60;;;;;;5016878;28;20249;-70
2022/03/06 10:52:15;;;;;;;7.57;3.67;;;5.00;57.50;;;;;;5023614;28;20122;-71
2022/03/06 10:54:56;;;;;;;7.85;3.92;;;5.00;57.60;;;;;;5024199;28;20184;-72
2022/03/06 10:57:37;;;;;;;5.40;2.40;;;5.10;57.00;;;;;;5020449;28;20049;-73
2022/03/06 11:00:10;;;;;;;6.13;2.88;;;5.10;54.90;;;;;;5016308;28;20557;-67
2022/03/06 11:02:39;;;;;;;5.93;3.10;;;5.10;54.80;;;;;;5013984;28;20041;-72
2022/03/06 11:05:07;;;;;;;5.68;2.80;;;5.20;52.80;;;;;;5026567;28;20042;-71
2022/03/06 11:07:38;;;;;;;6.68;2.60;;;5.20;54.30;;;;;;5028849;28;20123;-71
2022/03/06 11:10:08;;;;;;;5.55;2.58;;;5.20;53.20;;;;;;5011807;28;20123;-71
2022/03/06 11:12:39;;;;;;;5.00;2.15;;;5.20;52.70;;;;;;5020490;28;20052;-72
2022/03/06 11:15:10;;;;;;;5.80;3.00;;;5.30;53.90;;;;;;5015070;28;20077;-73
2022/03/06 11:17:41;;;;;;;6.10;2.75;;;5.30;51.80;;;;;;5017284;28;20038;-71
2022/03/06 11:20:10;;;;;;;7.57;3.55;;;5.40;52.20;;;;;;5022405;28;20470;-73
2022/03/06 11:22:49;;;;;;;5.82;3.00;;;5.40;51.80;;;;;;5026974;28;20049;-72
2022/03/06 11:25:23;;;;;;;8.35;3.28;;;5.40;52.00;;;;;;5024956;28;20101;-71
2022/03/06 11:28:05;;;;;;;6.60;2.70;;;5.40;51.50;;;;;;5021101;28;20472;-71
2022/03/06 11:30:36;;;;;;;4.78;2.45;;;5.40;51.90;;;;;;5025482;28;20057;-71
2022/03/06 11:33:07;;;;;;;6.05;2.45;;;5.50;51.60;;;;;;5024059;28;20057;-72
2022/03/06 11:35:37;;;;;;;6.82;3.00;;;5.50;51.70;;;;;;5024941;28;20048;-72
2022/03/06 11:38:06;;;;;;;4.70;2.67;;;5.60;51.10;;;;;;5019524;28;20054;-71
2022/03/06 11:40:52;;;;;;;4.50;2.67;;;5.60;51.30;;;;;;5045057;28;20158;-72
2022/03/06 11:43:50;;;;;;;4.40;2.20;;;5.70;51.70;;;;;;5058165;28;20032;-72
2022/03/06 11:46:24;;;;;;;5.30;3.08;;;5.70;52.10;;;;;;5063278;28;20049;-71
2022/03/06 11:49:06;;;;;;;7.28;3.33;;;5.70;51.50;;;;;;5080111;28;20085;-70
2022/03/06 11:51:39;;;;;;;8.38;3.20;;;5.70;50.70;;;;;;5066106;28;20056;-72
2022/03/06 11:54:08;;;;;;;7.18;2.85;;;5.80;50.60;;;;;;5056383;28;20139;-73
2022/03/06 11:57:03;;;;;;;7.72;3.45;;;5.80;50.30;;;;;;5062080;28;20128;-70
2022/03/06 11:59:46;;;;;;;6.50;2.42;;;5.80;49.60;;;;;;5062293;28;20052;-70
2022/03/06 12:02:23;;;;;;;6.30;2.53;;;5.80;49.60;;;;;;5057553;28;20127;-73
2022/03/06 12:07:58;;;;;;;6.57;2.67;;;5.80;49.80;;;;;;5053795;28;20052;-71
2022/03/06 12:10:25;;;;;;;5.60;2.67;;;5.70;49.50;;;;;;5072341;28;20048;-71
2022/03/06 12:13:06;;;;;;;7.47;2.75;;;5.80;49.70;;;;;;5069570;28;20106;-71
2022/03/06 12:15:36;;;;;;;4.65;2.47;;;5.70;48.80;;;;;;5068203;28;20059;-70
2022/03/06 12:18:07;;;;;;;5.90;2.30;;;5.80;49.10;;;;;;5064855;28;20068;-71
2022/03/06 12:20:54;;;;;;;5.37;2.67;;;5.80;49.20;;;;;;5062893;28;21223;-70
2022/03/06 12:23:32;;;;;;;4.20;2.55;;;5.90;48.50;;;;;;5054986;28;20485;-70
2022/03/06 12:26:01;;;;;;;4.18;2.30;;;5.90;48.10;;;;;;5065442;28;20053;-72
2022/03/06 12:28:43;;;;;;;5.88;2.72;;;5.90;48.30;;;;;;5076827;28;20056;-72
2022/03/06 12:31:34;;;;;;;6.80;2.90;;;5.90;48.30;;;;;;5059811;28;20072;-72
2022/03/06 12:34:38;;;;;;;5.80;2.60;;;6.00;47.80;;;;;;5061949;28;20072;-70
2022/03/06 12:37:09;;;;;;;6.60;3.03;;;6.00;48.40;;;;;;5062715;28;20047;-72
2022/03/06 12:39:39;;;;;;;4.43;2.70;;;6.00;48.80;;;;;;5059436;28;20093;-72
2022/03/06 12:42:08;;;;;;;3.97;2.30;;;6.00;48.10;;;;;;5063745;28;20049;-72
2022/03/06 12:44:44;;;;;;;6.53;2.90;;;6.00;48.80;;;;;;5064957;28;20042;-72
2022/03/06 12:47:12;;;;;;;4.85;2.35;;;5.90;48.60;;;;;;5061620;28;20142;-72
2022/03/06 12:49:47;;;;;;;5.07;2.80;;;6.00;48.10;;;;;;5066636;28;20437;-73
2022/03/06 12:52:28;;;;;;;7.07;3.53;;;5.90;47.50;;;;;;5068650;28;20040;-73
2022/03/06 12:54:57;;;;;;;5.10;2.80;;;5.90;47.60;;;;;;5069741;28;20052;-72
2022/03/06 12:57:29;;;;;;;7.03;3.35;;;5.90;48.00;;;;;;5063774;28;20899;-72
2022/03/06 12:59:58;;;;;;;5.05;3.03;;;5.90;47.70;;;;;;5068965;28;20489;-71
2022/03/06 13:02:26;;;;;;;5.55;2.90;;;5.90;47.30;;;;;;5064930;28;20069;-71
2022/03/06 13:04:55;;;;;;;6.20;3.22;;;5.90;47.50;;;;;;5055544;28;20569;-72
2022/03/06 13:07:33;;;;;;;5.20;2.88;;;5.90;47.30;;;;;;5053943;28;20521;-72
2022/03/06 13:10:04;;;;;;;4.32;2.45;;;5.90;46.60;;;;;;5067774;28;20516;-73
2022/03/06 13:12:36;;;;;;;6.97;3.40;;;5.90;46.30;;;;;;5058576;28;20056;-71